Time;durP1;ratioP1;P1;durP2;ratioP2;P2;SDS_P1;SDS_P2;PMS_P1;PMS_P2;Temp;Humidity;BMP_temperature;BMP_pressure;BME280_temperature;BME280_humidity;BME280_pressure;Samples;Min_cycle;Max_cycle;Signal;HPM_P1;HPM_P2
2022/10/05 00:00:37;;;;;;;5.30;2.50;;;;;;;20.55;58.11;101509.28;2079951;28;20053;-75
2022/10/05 00:01:59;;;;;;;5.97;2.55;;;;;;;20.52;58.24;101507.56;2085296;28;20098;-74
2022/10/05 00:03:21;;;;;;;7.15;2.15;;;;;;;20.51;58.17;101513.81;2090164;28;20136;-74
2022/10/05 00:04:43;;;;;;;;;;;;;;;20.47;57.97;101513.91;2092278;28;20056;-73
2022/10/05 00:06:05;;;;;;;6.55;1.83;;;;;;;20.45;57.93;101508.53;2087864;28;20712;-74
2022/10/05 00:07:30;;;;;;;7.88;3.13;;;;;;;20.45;58.00;101515.69;2084766;28;20045;-73
2022/10/05 00:08:53;;;;;;;6.53;2.72;;;;;;;20.43;57.82;101510.34;2085090;28;20073;-73
2022/10/05 00:10:19;;;;;;;7.03;2.35;;;;;;;20.42;57.77;101500.53;2098937;28;20048;-73
2022/10/05 00:11:40;;;;;;;6.32;2.10;;;;;;;20.40;57.97;101515.78;2095429;28;20471;-73
2022/10/05 00:13:06;;;;;;;5.15;2.05;;;;;;;20.41;57.75;101506.81;2088358;28;20104;-73
2022/10/05 00:14:31;;;;;;;8.57;2.42;;;;;;;20.41;57.61;101513.97;2088072;28;20041;-75
2022/10/05 00:15:59;;;;;;;8.45;2.50;;;;;;;20.38;57.68;101520.25;2084848;28;20480;-74
2022/10/05 00:17:23;;;;;;;7.13;2.47;;;;;;;20.37;57.70;101512.22;2101246;28;20040;-74
2022/10/05 00:18:49;;;;;;;8.40;2.80;;;;;;;20.36;57.70;101522.06;2095626;28;20520;-74
2022/10/05 00:20:23;;;;;;;10.32;2.72;;;;;;;20.34;57.49;101520.31;2096160;28;20052;-74
2022/10/05 00:21:44;;;;;;;9.77;2.22;;;;;;;20.30;57.57;101520.31;2095220;28;20036;-74
2022/10/05 00:23:14;;;;;;;6.57;1.77;;;;;;;20.29;57.11;101523.88;2093875;28;20143;-73
2022/10/05 00:24:38;;;;;;;6.03;2.05;;;;;;;20.26;56.65;101521.25;2103547;28;20096;-73
2022/10/05 00:26:05;;;;;;;8.07;2.38;;;;;;;20.25;56.54;101514.13;2086474;28;20408;-74
2022/10/05 00:27:32;;;;;;;5.78;2.00;;;;;;;20.23;56.27;101515.91;2078184;28;20046;-74
2022/10/05 00:28:57;;;;;;;7.32;2.20;;;;;;;20.22;55.70;101518.63;2098201;28;20202;-73
2022/10/05 00:30:20;;;;;;;5.30;1.90;;;;;;;20.20;55.53;101513.28;2097663;28;20139;-73
2022/10/05 00:31:43;;;;;;;6.30;2.13;;;;;;;20.18;55.37;101520.47;2086282;28;21123;-73
2022/10/05 00:33:05;;;;;;;6.47;2.28;;;;;;;20.18;54.82;101525.81;2092021;28;20049;-73
2022/10/05 00:34:28;;;;;;;8.15;2.10;;;;;;;20.18;54.71;101514.22;2106146;28;20044;-74
2022/10/05 00:35:51;;;;;;;4.90;1.92;;;;;;;20.18;54.50;101514.22;2097332;28;20135;-72
2022/10/05 00:37:14;;;;;;;4.68;1.92;;;;;;;20.17;54.40;101520.47;2095085;28;20099;-73
2022/10/05 00:38:36;;;;;;;5.85;1.98;;;;;;;20.14;54.12;101525.88;2081282;28;20041;-74
2022/10/05 00:40:01;;;;;;;5.43;1.70;;;;;;;20.14;54.06;101524.09;2092051;28;20511;-73
2022/10/05 00:41:28;;;;;;;6.35;1.98;;;;;;;20.13;54.02;101526.78;2085929;28;20041;-75
2022/10/05 00:43:01;;;;;;;5.35;2.72;;;;;;;20.12;54.05;101525.91;2083751;28;20056;-72
2022/10/05 00:44:38;;;;;;;8.40;2.50;;;;;;;20.11;53.80;101529.47;2092703;28;20085;-72
2022/10/05 00:46:06;;;;;;;7.55;1.90;;;;;;;20.09;53.83;101525.91;2096495;28;20068;-73
2022/10/05 00:47:43;;;;;;;4.32;1.90;;;;;;;20.06;53.93;101525.06;2096657;28;20105;-72
2022/10/05 00:49:15;;;;;;;3.53;1.63;;;;;;;20.03;53.88;101522.41;2089516;28;20163;-73
2022/10/05 00:50:51;;;;;;;6.47;1.60;;;;;;;20.01;53.86;101516.22;2086627;28;20127;-73
2022/10/05 00:52:26;;;;;;;8.45;2.15;;;;;;;19.99;53.75;101518.91;2104795;28;20056;-73
2022/10/05 00:53:59;;;;;;;5.30;1.80;;;;;;;20.00;53.72;101512.63;2092999;28;20460;-73
2022/10/05 00:55:34;;;;;;;4.93;2.45;;;;;;;19.99;53.86;101518.91;2097712;28;20143;-73
2022/10/05 00:57:09;;;;;;;4.65;1.70;;;;;;;20.00;53.84;101519.78;2096580;28;20048;-73
2022/10/05 00:58:46;;;;;;;9.50;2.05;;;;;;;19.99;54.06;101523.38;2088506;28;20147;-73
2022/10/05 01:00:12;;;;;;;6.97;2.10;;;;;;;19.97;54.01;101514.44;2097924;28;20033;-73
2022/10/05 01:01:43;;;;;;;4.32;1.67;;;;;;;19.98;53.81;101521.59;2095859;28;20131;-73
2022/10/05 01:03:13;;;;;;;5.22;1.90;;;;;;;19.97;53.92;101519.81;2097811;28;20045;-73
2022/10/05 01:04:44;;;;;;;4.68;1.80;;;;;;;19.97;53.72;101515.34;2087576;28;20040;-73
2022/10/05 01:06:17;;;;;;;9.27;2.17;;;;;;;19.98;53.78;101519.78;2087921;28;20045;-74
2022/10/05 01:07:50;;;;;;;3.35;1.45;;;;;;;19.99;53.74;101521.56;2088496;28;20075;-74
2022/10/05 01:09:17;;;;;;;7.18;1.92;;;;;;;19.99;53.63;101526.94;2089042;28;20144;-74
2022/10/05 01:10:48;;;;;;;7.28;2.03;;;;;;;20.01;53.47;101518.88;2089196;28;20065;-73
2022/10/05 01:12:19;;;;;;;4.85;1.70;;;;;;;20.01;53.79;101529.59;2081002;28;20114;-73
2022/10/05 01:13:51;;;;;;;6.93;2.00;;;;;;;20.00;53.52;101526.03;2094282;28;20044;-73
2022/10/05 01:15:21;;;;;;;7.20;2.13;;;;;;;19.99;53.82;101520.69;2084161;28;20049;-73
2022/10/05 01:16:50;;;;;;;7.47;1.88;;;;;;;19.99;53.71;101523.38;2085890;28;20091;-73
2022/10/05 01:18:18;;;;;;;5.80;2.22;;;;;;;19.98;53.91;101529.63;2087692;28;20554;-74
2022/10/05 01:20:01;;;;;;;5.85;1.70;;;;;;;19.95;54.00;101522.53;2079222;28;20187;-73
2022/10/05 01:21:27;;;;;;;4.28;1.83;;;;;;;19.92;54.15;101525.22;2089450;28;20040;-73
2022/10/05 01:23:33;;;;;;;6.03;1.75;;;;;;;19.92;54.11;101527.91;2087531;28;20080;-73
2022/10/05 01:25:10;;;;;;;5.00;1.58;;;;;;;19.89;53.83;101528.81;2078798;28;20148;-73
2022/10/05 01:26:57;;;;;;;4.32;1.58;;;;;;;19.87;53.86;101530.66;2090910;28;20140;-73
2022/10/05 01:28:26;;;;;;;5.05;1.77;;;;;;;19.86;54.09;101523.50;2089270;28;20452;-73
2022/10/05 01:29:53;;;;;;;7.65;1.50;;;;;;;19.87;53.85;101537.78;2085686;28;20080;-73
2022/10/05 01:31:22;;;;;;;8.15;1.80;;;;;;;19.86;54.08;101539.59;2085373;28;20052;-73
2022/10/05 01:32:50;;;;;;;8.75;1.27;;;;;;;19.87;53.58;101527.06;2088973;28;20079;-73
2022/10/05 01:34:18;;;;;;;9.40;1.40;;;;;;;19.87;53.11;101540.47;2085135;28;20041;-73
2022/10/05 01:35:52;;;;;;;7.18;1.20;;;;;;;19.89;52.97;101533.28;2085751;28;20064;-73
2022/10/05 01:37:21;;;;;;;7.07;1.20;;;;;;;19.85;52.49;101535.13;2095372;28;20052;-73
2022/10/05 01:38:51;;;;;;;4.40;1.13;;;;;;;19.86;52.37;101544.94;2096084;28;20053;-73
2022/10/05 01:40:21;;;;;;;8.85;1.50;;;;;;;19.85;52.43;101548.53;2087375;28;20033;-73
2022/10/05 01:41:52;;;;;;;6.25;1.30;;;;;;;19.83;52.55;101544.97;2095545;28;20052;-73
2022/10/05 01:43:24;;;;;;;4.38;1.10;;;;;;;19.82;52.53;101543.19;2096014;28;20037;-73
2022/10/05 01:44:54;;;;;;;7.68;0.98;;;;;;;19.79;52.45;101543.22;2096855;28;20109;-73
2022/10/05 01:46:26;;;;;;;4.32;1.00;;;;;;;19.77;52.26;101545.03;2087202;28;20446;-73
2022/10/05 01:47:53;;;;;;;9.13;2.03;;;;;;;19.75;52.30;101537.91;2086593;28;20045;-73
2022/10/05 01:49:35;;;;;;;6.00;1.02;;;;;;;19.73;52.36;101545.06;2096963;28;20090;-73
2022/10/05 01:51:02;;;;;;;;;;;;;;;19.69;52.48;101546.00;2089373;28;20057;-73
2022/10/05 01:52:33;;;;;;;4.82;1.27;;;;;;;19.71;52.39;101536.16;2086977;28;20047;-73
2022/10/05 01:54:03;;;;;;;5.75;1.25;;;;;;;19.74;52.47;101541.50;2097494;28;20068;-73
2022/10/05 01:55:35;;;;;;;5.63;1.50;;;;;;;19.77;52.15;101554.84;2104151;28;20097;-73
2022/10/05 01:57:10;;;;;;;3.10;1.20;;;;;;;19.80;52.32;101555.72;2104305;28;20079;-73
2022/10/05 01:58:44;;;;;;;10.88;2.58;;;;;;;19.83;52.04;101553.00;2096344;28;20552;-73
2022/10/05 02:00:13;;;;;;;4.93;1.00;;;;;;;19.85;52.20;101553.00;2095481;28;20056;-73
2022/10/05 02:01:43;;;;;;;5.88;1.20;;;;;;;19.87;52.34;101549.41;2101654;28;20566;-73
2022/10/05 02:03:14;;;;;;;6.05;1.92;;;;;;;19.90;52.45;101543.09;2095590;28;20053;-72
2022/10/05 02:04:40;;;;;;;4.53;1.20;;;;;;;19.95;52.70;101537.72;2100980;28;20028;-73
2022/10/05 02:06:10;;;;;;;7.35;1.30;;;;;;;19.98;52.50;101532.31;2093408;28;20056;-73
2022/10/05 02:07:37;;;;;;;6.00;1.45;;;;;;;20.02;52.53;101544.78;2084681;28;20049;-73
2022/10/05 02:09:08;;;;;;;6.72;1.20;;;;;;;20.03;52.70;101536.72;2092463;28;20054;-73
2022/10/05 02:10:35;;;;;;;7.28;1.63;;;;;;;20.02;52.80;101539.44;2088463;28;20158;-73
2022/10/05 02:12:04;;;;;;;5.28;1.35;;;;;;;20.03;53.03;101546.53;2088528;28;20497;-73
2022/10/05 02:13:32;;;;;;;3.90;1.73;;;;;;;20.02;52.82;101547.47;2088413;28;20040;-73
2022/10/05 02:15:07;;;;;;;6.07;1.30;;;;;;;20.01;53.22;101545.69;2095675;28;20136;-74
2022/10/05 02:16:34;;;;;;;5.90;1.55;;;;;;;20.00;53.21;101547.47;2103483;28;20040;-73
2022/10/05 02:18:02;;;;;;;6.05;1.40;;;;;;;20.00;53.19;101538.56;2105700;28;20415;-74
2022/10/05 02:19:31;;;;;;;5.55;1.40;;;;;;;19.99;52.88;101543.03;2097170;28;20488;-74
2022/10/05 02:20:57;;;;;;;4.97;1.50;;;;;;;19.96;52.89;101545.72;2095530;28;20143;-73
2022/10/05 02:22:27;;;;;;;6.35;1.30;;;;;;;19.96;52.78;101539.47;2101453;28;20055;-74
2022/10/05 02:23:53;;;;;;;9.00;1.50;;;;;;;19.95;52.35;101543.97;2086403;28;20044;-72
2022/10/05 02:25:19;;;;;;;5.30;1.27;;;;;;;19.94;52.39;101538.63;2092589;28;20139;-73
2022/10/05 02:26:43;;;;;;;8.80;1.67;;;;;;;19.94;52.54;101538.63;2087314;28;20066;-74
2022/10/05 02:28:08;;;;;;;4.45;1.10;;;;;;;19.94;52.49;101531.47;2082857;28;20142;-74
2022/10/05 02:29:36;;;;;;;8.55;1.58;;;;;;;19.95;52.56;101522.53;2084014;28;20593;-74
2022/10/05 02:31:06;;;;;;;7.35;1.30;;;;;;;19.99;52.51;101523.38;2093039;28;20040;-74
2022/10/05 02:32:37;;;;;;;11.27;1.85;;;;;;;20.02;52.75;101528.72;2094012;28;20036;-73
2022/10/05 02:34:22;;;;;;;8.00;1.38;;;;;;;20.03;52.64;101528.66;2091664;28;20052;-73
2022/10/05 02:35:45;;;;;;;4.70;1.33;;;;;;;20.01;52.86;101530.50;2088622;28;20055;-73
2022/10/05 02:37:29;;;;;;;8.38;2.75;;;;;;;20.02;52.78;101528.72;2100226;28;20144;-73
2022/10/05 02:39:01;;;;;;;6.43;1.40;;;;;;;20.05;52.45;101534.03;2088711;28;20065;-73
2022/10/05 02:40:31;;;;;;;6.53;1.45;;;;;;;20.07;52.44;101530.44;2088648;28;20041;-73
2022/10/05 02:42:03;;;;;;;6.97;1.23;;;;;;;20.10;52.34;101532.16;2085541;28;20057;-73
2022/10/05 02:43:39;;;;;;;5.88;1.70;;;;;;;20.13;52.57;101540.19;2102683;28;20040;-73
2022/10/05 02:45:14;;;;;;;5.95;1.40;;;;;;;20.16;52.19;101540.13;2080200;28;20054;-73
2022/10/05 02:46:45;;;;;;;5.32;1.25;;;;;;;20.18;52.28;101532.97;2087302;28;20068;-73
2022/10/05 02:48:14;;;;;;;8.07;1.95;;;;;;;20.21;52.45;101535.63;2086844;28;20045;-73
2022/10/05 02:49:43;;;;;;;4.25;1.65;;;;;;;20.25;52.47;101532.00;2094536;28;20044;-73
2022/10/05 02:51:16;;;;;;;5.47;1.30;;;;;;;20.30;52.14;101533.72;2079782;28;20148;-73
2022/10/05 02:52:47;;;;;;;5.75;1.35;;;;;;;20.31;52.13;101526.56;2086589;28;20111;-73
2022/10/05 02:54:23;;;;;;;8.63;1.27;;;;;;;20.30;52.30;101531.03;2087568;28;20110;-73
2022/10/05 02:55:54;;;;;;;6.68;1.33;;;;;;;20.32;52.19;101535.50;2087647;28;20544;-73
2022/10/05 02:57:27;;;;;;;4.90;1.25;;;;;;;20.34;52.29;101536.41;2094376;28;20538;-73
2022/10/05 02:58:58;;;;;;;6.47;1.42;;;;;;;20.36;52.25;101538.16;2079893;28;20052;-73
2022/10/05 03:00:24;;;;;;;5.82;1.45;;;;;;;20.39;52.24;101534.56;2093744;28;20163;-73
2022/10/05 03:01:51;;;;;;;8.15;1.58;;;;;;;20.40;52.19;101534.53;2079877;28;20140;-73
2022/10/05 03:03:20;;;;;;;11.95;1.70;;;;;;;20.41;52.20;101528.28;2086168;28;20053;-73
2022/10/05 03:04:54;;;;;;;6.95;1.52;;;;;;;20.39;52.21;101539.91;2090808;28;20043;-73
2022/10/05 03:06:22;;;;;;;5.75;1.65;;;;;;;20.34;52.46;101539.09;2102452;28;20054;-73
2022/10/05 03:07:55;;;;;;;10.90;2.08;;;;;;;20.29;52.87;101536.41;2094188;28;20385;-73
2022/10/05 03:09:22;;;;;;;9.85;1.75;;;;;;;20.25;52.97;101542.72;2094099;28;20056;-74
2022/10/05 03:10:56;;;;;;;5.57;1.45;;;;;;;20.21;52.92;101541.00;2092123;28;20059;-74
2022/10/05 03:12:37;;;;;;;5.55;1.60;;;;;;;20.19;52.70;101535.66;2095340;28;20040;-74
2022/10/05 03:14:09;;;;;;;9.02;1.50;;;;;;;20.14;52.90;101532.13;2094947;28;20439;-74
2022/10/05 03:16:01;;;;;;;8.93;2.47;;;;;;;20.12;52.40;101525.00;2093654;28;20404;-74
2022/10/05 03:17:32;;;;;;;8.20;1.40;;;;;;;20.12;52.25;101533.06;2079742;28;20051;-74
2022/10/05 03:19:09;;;;;;;6.88;1.60;;;;;;;20.13;52.14;101532.16;2094657;28;20055;-74
2022/10/05 03:20:40;;;;;;;7.05;1.30;;;;;;;20.14;51.98;101532.13;2094779;28;20049;-74
2022/10/05 03:22:11;;;;;;;6.68;1.73;;;;;;;20.17;52.11;101536.56;2093346;28;20389;-74
2022/10/05 03:23:45;;;;;;;6.63;1.45;;;;;;;20.19;52.04;101540.13;2093668;28;20046;-73
2022/10/05 03:25:22;;;;;;;;;;;;;;;20.16;52.30;101535.66;2091529;28;20051;-73
2022/10/05 03:26:57;;;;;;;5.90;1.30;;;;;;;20.20;52.16;101540.09;2099291;28;20063;-73
2022/10/05 03:28:25;;;;;;;7.15;1.65;;;;;;;20.23;52.32;101548.09;2087844;28;20057;-73
2022/10/05 03:29:57;;;;;;;5.03;1.60;;;;;;;20.25;52.33;101537.38;2094390;28;20052;-73
2022/10/05 03:31:25;;;;;;;6.80;1.83;;;;;;;20.26;52.21;101540.03;2083617;28;20045;-73
2022/10/05 03:32:58;;;;;;;7.00;1.50;;;;;;;20.32;52.03;101540.88;2084020;28;20059;-73
2022/10/05 03:34:31;;;;;;;5.57;1.70;;;;;;;20.34;51.75;101533.72;2090592;28;20066;-73
2022/10/05 03:36:03;;;;;;;8.48;1.70;;;;;;;20.34;51.80;101544.47;2093892;28;20052;-73
2022/10/05 03:37:45;;;;;;;5.75;1.75;;;;;;;20.32;52.00;101539.06;2095090;28;20131;-73
2022/10/05 03:39:14;;;;;;;5.90;1.25;;;;;;;20.35;51.91;101543.56;2103716;28;20079;-73
2022/10/05 03:40:45;;;;;;;5.03;1.33;;;;;;;20.37;51.89;101544.41;2079570;28;20596;-73
2022/10/05 03:42:18;;;;;;;5.75;1.30;;;;;;;20.34;51.83;101539.97;2076552;28;20453;-73
2022/10/05 03:43:54;;;;;;;7.43;2.00;;;;;;;20.33;52.15;101546.25;2087418;28;20048;-73
2022/10/05 03:45:25;;;;;;;5.68;1.48;;;;;;;20.32;52.32;101549.78;2103059;28;20061;-73
2022/10/05 03:47:01;;;;;;;4.40;1.40;;;;;;;20.31;52.30;101548.03;2091675;28;20055;-73
2022/10/05 03:48:32;;;;;;;4.95;1.40;;;;;;;20.32;52.08;101548.91;2094662;28;20050;-73
2022/10/05 03:50:12;;;;;;;5.45;1.30;;;;;;;20.34;52.08;101539.97;2087738;28;20045;-73
2022/10/05 03:51:37;;;;;;;7.80;1.52;;;;;;;20.37;52.22;101547.97;2087194;28;20434;-73
2022/10/05 03:53:08;;;;;;;5.40;1.30;;;;;;;20.40;52.29;101541.69;2083472;28;20668;-73
2022/10/05 03:54:36;;;;;;;5.30;1.55;;;;;;;20.42;52.06;101540.75;2093050;28;20045;-73
2022/10/05 03:56:06;;;;;;;6.80;1.60;;;;;;;20.42;52.22;101551.47;2094042;28;20163;-73
2022/10/05 03:57:33;;;;;;;4.95;1.80;;;;;;;20.42;52.09;101546.13;2085463;28;20045;-73
2022/10/05 03:59:00;;;;;;;4.30;1.55;;;;;;;20.40;52.03;101542.59;2075228;28;20739;-74
2022/10/05 04:00:26;;;;;;;6.15;1.20;;;;;;;20.40;52.14;101545.28;2087823;28;20052;-73
2022/10/05 04:01:59;;;;;;;6.63;1.02;;;;;;;20.39;51.97;101556.00;2085737;28;20136;-72
2022/10/05 04:03:29;;;;;;;7.70;1.52;;;;;;;20.38;51.87;101552.44;2092183;28;20045;-73
2022/10/05 04:04:57;;;;;;;6.10;1.00;;;;;;;20.40;51.86;101555.09;2085762;28;20071;-73
2022/10/05 04:06:25;;;;;;;5.50;1.10;;;;;;;20.40;51.96;101557.78;2091798;28;20052;-73
2022/10/05 04:07:52;;;;;;;3.47;1.27;;;;;;;20.42;51.72;101558.63;2079174;28;20081;-73
2022/10/05 04:09:19;;;;;;;7.80;1.52;;;;;;;20.43;51.83;101564.00;2083934;28;20135;-73
2022/10/05 04:10:46;;;;;;;3.42;1.20;;;;;;;20.42;51.81;101553.28;2083898;28;20799;-73
2022/10/05 04:12:15;;;;;;;6.60;1.40;;;;;;;20.40;51.86;101573.88;2090806;28;20051;-72
2022/10/05 04:13:44;;;;;;;6.75;1.48;;;;;;;20.37;51.84;101550.66;2102310;28;20063;-73
2022/10/05 04:15:15;;;;;;;6.88;1.35;;;;;;;20.33;51.71;101559.66;2087842;28;20084;-73
2022/10/05 04:16:43;;;;;;;6.15;1.10;;;;;;;20.32;51.86;101563.22;2101364;28;20063;-73
2022/10/05 04:18:11;;;;;;;5.90;1.40;;;;;;;20.34;51.87;101565.91;2087641;28;20058;-73
2022/10/05 04:19:43;;;;;;;6.88;1.40;;;;;;;20.35;51.49;101562.34;2101831;28;20653;-73
2022/10/05 04:21:12;;;;;;;5.63;2.00;;;;;;;20.38;51.34;101560.50;2093086;28;20420;-74
2022/10/05 04:22:38;;;;;;;5.60;1.10;;;;;;;20.44;51.21;101567.56;2088228;28;20545;-73
2022/10/05 04:24:06;;;;;;;5.07;1.08;;;;;;;20.49;51.06;101563.91;2083465;28;20052;-73
2022/10/05 04:25:34;;;;;;;4.32;1.00;;;;;;;20.53;50.85;101576.41;2092334;28;20040;-73
2022/10/05 04:26:59;;;;;;;6.03;1.45;;;;;;;20.57;50.51;101575.44;2085464;28;20055;-73
2022/10/05 04:28:32;;;;;;;4.22;1.30;;;;;;;20.60;50.66;101575.44;2093571;28;20107;-73
2022/10/05 04:29:59;;;;;;;7.28;1.63;;;;;;;20.60;50.91;101578.09;2092969;28;20098;-73
2022/10/05 04:31:40;;;;;;;6.10;1.60;;;;;;;20.55;51.19;101574.56;2101186;28;20071;-73
2022/10/05 04:33:01;;;;;;;9.65;2.35;;;;;;;20.51;51.33;101570.16;2095930;28;20048;-73
2022/10/05 04:34:44;;;;;;;4.78;1.50;;;;;;;20.48;50.75;101572.88;2091706;28;20413;-73
2022/10/05 04:36:19;;;;;;;8.18;1.10;;;;;;;20.46;50.55;101580.06;2095652;28;20052;-73
2022/10/05 04:37:49;;;;;;;4.85;1.13;;;;;;;20.44;50.09;101568.47;2102840;28;20089;-73
2022/10/05 04:39:22;;;;;;;6.40;1.40;;;;;;;20.43;49.93;101572.03;2092726;28;20055;-73
2022/10/05 04:40:56;;;;;;;5.78;1.25;;;;;;;20.44;49.66;101580.97;2078814;28;20045;-73
2022/10/05 04:42:28;;;;;;;7.88;1.33;;;;;;;20.45;49.79;101582.75;2086091;28;20057;-73
2022/10/05 04:44:10;;;;;;;6.03;1.15;;;;;;;20.47;49.65;101592.59;2079714;28;20540;-72
2022/10/05 04:45:47;;;;;;;10.20;1.50;;;;;;;20.54;49.79;101596.06;2088054;28;20037;-73
2022/10/05 04:47:21;;;;;;;8.75;1.30;;;;;;;20.62;49.87;101591.47;2087678;28;20643;-73
2022/10/05 04:49:14;;;;;;;6.97;1.55;;;;;;;20.76;50.27;101586.84;2085488;28;20505;-73
2022/10/05 04:50:50;;;;;;;8.07;1.83;;;;;;;20.95;50.25;101592.84;2093907;28;20044;-73
2022/10/05 04:52:22;;;;;;;6.60;1.50;;;;;;;21.09;49.97;101588.16;2090833;28;20041;-73
2022/10/05 04:53:51;;;;;;;6.80;1.10;;;;;;;21.28;49.75;101603.13;2090861;28;20053;-73
2022/10/05 04:55:24;;;;;;;2.47;0.90;;;;;;;21.48;49.39;101590.28;2094209;28;20037;-72
2022/10/05 04:56:53;;;;;;;7.35;1.05;;;;;;;21.67;49.22;101595.34;2094460;28;20052;-73
2022/10/05 04:58:26;;;;;;;5.18;1.27;;;;;;;21.82;49.19;101603.16;2085536;28;20037;-73
2022/10/05 05:00:14;;;;;;;5.38;0.90;;;;;;;21.98;49.02;101593.06;2086871;28;20060;-73
2022/10/05 05:01:51;;;;;;;5.65;1.17;;;;;;;22.08;49.06;101603.63;2095626;28;20048;-73
2022/10/05 05:03:32;;;;;;;4.22;1.02;;;;;;;22.18;48.95;101607.94;2086992;28;20525;-73
2022/10/05 05:05:22;;;;;;;5.32;1.27;;;;;;;22.35;48.70;101604.00;2079661;28;20045;-73
2022/10/05 05:07:03;;;;;;;5.55;1.20;;;;;;;22.52;48.56;101613.53;2096150;28;20097;-73
2022/10/05 05:08:42;;;;;;;4.63;0.98;;;;;;;22.67;48.41;101615.91;2079469;28;20513;-73
2022/10/05 05:10:26;;;;;;;5.60;1.23;;;;;;;22.85;48.43;101613.78;2095207;28;20052;-73
2022/10/05 05:12:04;;;;;;;4.45;1.27;;;;;;;22.94;47.82;101618.97;2088420;28;20045;-73
2022/10/05 05:13:55;;;;;;;7.03;0.95;;;;;;;22.90;47.75;101622.66;2081835;28;20046;-73
2022/10/05 05:15:29;;;;;;;2.85;1.10;;;;;;;22.86;47.96;101600.28;2089607;28;20072;-73
2022/10/05 05:17:04;;;;;;;3.17;1.13;;;;;;;22.75;47.91;101621.19;2092114;28;20057;-72
2022/10/05 05:18:43;;;;;;;8.45;1.30;;;;;;;22.61;47.65;101617.84;2089363;28;20048;-72
2022/10/05 05:20:18;;;;;;;7.43;1.20;;;;;;;22.42;47.57;101625.41;2093603;28;20109;-73
2022/10/05 05:21:47;;;;;;;11.02;1.50;;;;;;;22.26;47.58;101624.78;2089801;28;20037;-73
2022/10/05 05:23:22;;;;;;;6.75;1.20;;;;;;;22.22;47.44;101633.84;2086208;28;20053;-73
2022/10/05 05:24:58;;;;;;;6.10;1.17;;;;;;;22.22;47.19;101624.88;2102983;28;20134;-73
2022/10/05 05:26:27;;;;;;;5.70;1.20;;;;;;;22.14;47.23;101622.34;2089505;28;20475;-73
2022/10/05 05:27:54;;;;;;;10.27;1.60;;;;;;;22.22;47.18;101620.41;2097682;28;20045;-73
2022/10/05 05:29:22;;;;;;;6.82;1.13;;;;;;;22.43;47.03;101629.88;2082060;28;20057;-73
2022/10/05 05:30:52;;;;;;;6.68;1.00;;;;;;;22.65;46.54;101619.53;2093254;28;20492;-72
2022/10/05 05:32:23;;;;;;;7.00;1.20;;;;;;;22.64;46.07;101634.81;2091052;28;20600;-73
2022/10/05 05:33:56;;;;;;;5.95;1.05;;;;;;;22.52;46.13;101632.34;2097374;28;20049;-72
2022/10/05 05:35:50;;;;;;;5.20;1.05;;;;;;;22.39;46.34;101627.25;2086289;28;20133;-73
2022/10/05 05:37:23;;;;;;;4.82;1.20;;;;;;;22.41;46.61;101638.88;2083526;28;20041;-73
2022/10/05 05:38:56;;;;;;;5.38;0.90;;;;;;;22.59;46.38;101643.91;2094802;28;20052;-73
2022/10/05 05:40:26;;;;;;;5.68;1.08;;;;;;;22.78;46.20;101647.13;2079409;28;20056;-73
2022/10/05 05:41:59;;;;;;;7.15;0.90;;;;;;;22.94;46.02;101641.41;2077584;28;20049;-73
2022/10/05 05:43:25;;;;;;;6.78;1.00;;;;;;;22.98;45.69;101648.50;2080185;28;20045;-73
2022/10/05 05:44:51;;;;;;;4.18;0.85;;;;;;;22.92;45.32;101647.75;2085006;28;20052;-72
2022/10/05 05:46:21;;;;;;;2.63;1.13;;;;;;;23.00;45.16;101641.28;2084429;28;20037;-72
2022/10/05 05:47:52;;;;;;;6.22;1.10;;;;;;;23.17;44.70;101651.66;2085788;28;20052;-72
2022/10/05 05:49:21;;;;;;;4.70;1.02;;;;;;;23.34;44.56;101648.63;2086521;28;20049;-72
2022/10/05 05:50:55;;;;;;;6.88;1.30;;;;;;;23.54;44.08;101646.38;2084272;28;20049;-72
2022/10/05 05:52:22;;;;;;;5.30;1.25;;;;;;;23.69;43.49;101646.03;2087490;28;20136;-72
2022/10/05 05:53:50;;;;;;;9.35;1.20;;;;;;;23.81;43.16;101650.22;2084434;28;20053;-72
2022/10/05 05:55:21;;;;;;;4.50;0.98;;;;;;;23.92;42.95;101648.13;2095616;28;20044;-72
2022/10/05 05:56:47;;;;;;;5.63;1.33;;;;;;;23.86;42.56;101650.97;2087568;28;20140;-73
2022/10/05 05:58:18;;;;;;;5.03;0.95;;;;;;;23.67;42.58;101652.34;2084999;28;20159;-72
2022/10/05 06:00:03;;;;;;;3.60;0.80;;;;;;;23.64;43.02;101657.81;2094663;28;20049;-73
2022/10/05 06:01:39;;;;;;;4.38;0.98;;;;;;;23.64;43.07;101658.69;2096452;28;20041;-73
2022/10/05 06:03:11;;;;;;;2.80;0.90;;;;;;;23.75;42.88;101661.16;2089984;28;20052;-72
2022/10/05 06:04:38;;;;;;;6.05;1.05;;;;;;;23.92;42.92;101650.81;2080480;28;20525;-73
2022/10/05 06:06:05;;;;;;;4.10;0.80;;;;;;;24.07;43.07;101649.56;2091350;28;20397;-72
2022/10/05 06:07:31;;;;;;;1.33;0.63;;;;;;;24.19;42.94;101649.25;2086830;28;20890;-72
2022/10/05 06:09:01;;;;;;;4.20;0.95;;;;;;;24.35;43.23;101661.41;2087003;28;20072;-72
2022/10/05 06:10:53;;;;;;;3.78;1.10;;;;;;;24.57;42.99;101653.59;2080798;28;20494;-73
2022/10/05 06:12:21;;;;;;;4.38;1.05;;;;;;;24.68;43.12;101656.88;2077056;28;20057;-73
2022/10/05 06:13:44;;;;;;;6.40;1.13;;;;;;;24.81;42.96;101658.31;2084854;28;20041;-75
2022/10/05 06:15:22;;;;;;;4.50;0.68;;;;;;;24.97;42.63;101653.38;2091371;28;20572;-75
2022/10/05 06:16:51;;;;;;;4.97;0.90;;;;;;;24.96;42.46;101655.19;2094316;28;20564;-75
2022/10/05 06:18:17;;;;;;;4.15;0.75;;;;;;;24.99;42.33;101662.34;2095413;28;20064;-75
2022/10/05 06:19:40;;;;;;;10.20;1.58;;;;;;;25.08;42.30;101653.94;2084864;28;20036;-76
2022/10/05 06:21:14;;;;;;;3.40;0.80;;;;;;;25.21;41.82;101657.16;2089508;28;20044;-76
2022/10/05 06:22:40;;;;;;;3.95;0.90;;;;;;;25.27;41.61;101665.97;2087200;28;20370;-76
2022/10/05 06:24:10;;;;;;;2.97;0.68;;;;;;;25.35;41.35;101663.91;2092932;28;20476;-77
2022/10/05 06:25:42;;;;;;;6.85;0.95;;;;;;;25.47;41.24;101675.31;2095454;28;20393;-77
2022/10/05 06:27:26;;;;;;;3.42;0.98;;;;;;;25.62;41.08;101675.72;2091382;28;20037;-77
2022/10/05 06:28:57;;;;;;;3.92;1.02;;;;;;;25.73;40.99;101678.09;2080590;28;20057;-75
2022/10/05 06:30:20;;;;;;;3.17;0.95;;;;;;;25.85;40.68;101680.38;2092403;28;20048;-77
2022/10/05 06:32:02;;;;;;;3.47;0.80;;;;;;;25.97;40.42;101677.28;2086694;28;20061;-77
2022/10/05 06:33:42;;;;;;;6.53;0.70;;;;;;;26.05;40.24;101675.19;2087491;28;20048;-77
2022/10/05 06:35:18;;;;;;;5.53;0.85;;;;;;;26.11;39.75;101660.56;2086727;28;20037;-76
2022/10/05 06:36:48;;;;;;;2.70;0.57;;;;;;;26.12;39.38;101679.44;2086266;28;20415;-76
2022/10/05 06:38:35;;;;;;;3.00;0.63;;;;;;;26.18;39.15;101681.97;2094126;28;20203;-77
2022/10/05 06:40:19;;;;;;;3.15;0.57;;;;;;;26.19;39.21;101686.41;2080506;28;20041;-76
2022/10/05 06:41:56;;;;;;;1.67;0.60;;;;;;;26.21;38.92;101680.97;2095681;28;20044;-76
2022/10/05 06:43:52;;;;;;;3.97;0.63;;;;;;;26.33;38.05;101682.38;2096044;28;20094;-76
2022/10/05 06:45:35;;;;;;;;;;;;;;;26.30;38.13;101680.69;2081044;28;20091;-75
2022/10/05 06:47:18;;;;;;;3.83;0.82;;;;;;;26.35;38.17;101683.22;2088368;28;20374;-77
2022/10/05 06:49:18;;;;;;;4.80;1.25;;;;;;;26.47;37.74;101686.38;2087030;28;20076;-76
2022/10/05 06:50:53;;;;;;;5.43;0.70;;;;;;;26.57;37.54;101687.84;2100581;28;20060;-75
2022/10/05 06:52:42;;;;;;;8.15;0.90;;;;;;;26.69;37.32;101699.16;2087268;28;20075;-76
2022/10/05 06:54:16;;;;;;;2.70;0.80;;;;;;;26.86;37.30;101702.13;2098451;28;20566;-75
2022/10/05 06:55:49;;;;;;;3.03;0.70;;;;;;;27.00;37.09;101705.25;2084832;28;20128;-75
2022/10/05 06:57:25;;;;;;;9.48;0.93;;;;;;;27.09;37.02;101709.44;2088645;28;20053;-76
2022/10/05 06:58:59;;;;;;;6.45;0.85;;;;;;;27.17;36.92;101705.53;2085982;28;20033;-75
2022/10/05 07:00:23;;;;;;;6.05;0.70;;;;;;;27.24;36.82;101714.31;2088780;28;20102;-75
2022/10/05 07:01:59;;;;;;;3.78;0.98;;;;;;;27.31;36.61;101711.25;2092093;28;20037;-76
2022/10/05 07:03:31;;;;;;;1.42;0.40;;;;;;;27.33;36.52;101712.09;2094409;28;20159;-76
2022/10/05 07:05:31;;;;;;;9.35;1.10;;;;;;;27.43;36.07;101711.75;2090596;28;20533;-76
2022/10/05 07:06:58;;;;;;;6.13;1.02;;;;;;;27.49;36.13;101687.09;2088076;28;20049;-75
2022/10/05 07:08:31;;;;;;;2.95;0.63;;;;;;;27.50;35.89;101706.03;2083333;28;20057;-75